createdAt,value
2023-04-14T00:01:17.256Z,11.57
2023-04-14T00:04:20.418Z,10.40
2023-04-14T00:07:23.180Z,14.30
2023-04-14T00:10:26.426Z,12.55
2023-04-14T00:13:29.137Z,11.43
2023-04-14T00:16:32.120Z,12.38
2023-04-14T00:19:34.759Z,12.83
2023-04-14T00:22:37.532Z,11.47
2023-04-14T00:25:40.580Z,10.77
2023-04-14T00:28:43.312Z,12.35
2023-04-14T00:31:45.864Z,16.33
2023-04-14T00:34:48.530Z,12.27
2023-04-14T00:37:52.069Z,11.10
2023-04-14T00:40:54.684Z,12.50
2023-04-14T00:43:59.169Z,11.15
2023-04-14T00:47:02.036Z,14.10
2023-04-14T00:50:05.452Z,10.67
2023-04-14T00:53:08.473Z,11.33
2023-04-14T00:56:11.146Z,12.05
2023-04-14T00:59:14.153Z,10.68
2023-04-14T01:02:17.338Z,11.50
2023-04-14T01:05:20.197Z,9.83
2023-04-14T01:08:22.984Z,11.53
2023-04-14T01:11:35.694Z,9.40
2023-04-14T01:14:55.873Z,9.50
2023-04-14T01:18:01.799Z,8.38
2023-04-14T01:21:20.457Z,9.50
2023-04-14T01:25:12.961Z,9.37
2023-04-14T01:28:37.861Z,9.43
2023-04-14T01:31:49.259Z,9.18
2023-04-14T01:34:57.882Z,9.38
2023-04-14T01:38:06.866Z,10.60
2023-04-14T01:41:13.223Z,12.23
2023-04-14T01:44:18.695Z,11.07
2023-04-14T01:47:21.840Z,9.93
2023-04-14T01:50:25.600Z,10.23
2023-04-14T01:53:28.760Z,10.33
2023-04-14T01:56:34.037Z,11.67
2023-04-14T01:59:37.650Z,10.45
2023-04-14T02:02:41.883Z,10.32
2023-04-14T02:05:45.101Z,10.52
2023-04-14T02:08:47.755Z,10.50
2023-04-14T02:11:51.695Z,12.07
2023-04-14T02:14:55.555Z,12.90
2023-04-14T02:17:59.188Z,12.35
2023-04-14T02:21:04.095Z,11.23
2023-04-14T02:24:07.077Z,12.57
2023-04-14T02:27:19.059Z,13.13
2023-04-14T02:30:39.609Z,12.77
2023-04-14T02:33:43.913Z,11.77
2023-04-14T02:36:49.062Z,16.48
2023-04-14T02:39:58.870Z,12.93
2023-04-14T02:43:06.098Z,12.40
2023-04-14T02:46:09.562Z,12.15
2023-04-14T02:49:13.678Z,14.23
2023-04-14T02:52:19.566Z,12.25
2023-04-14T02:55:23.663Z,13.70
2023-04-14T02:58:30.072Z,14.20
2023-04-14T03:01:33.255Z,13.00
2023-04-14T03:04:41.887Z,13.15
2023-04-14T03:07:54.319Z,13.65
2023-04-14T03:10:57.873Z,13.93
2023-04-14T03:14:03.327Z,15.50
2023-04-14T03:17:07.415Z,14.43
2023-04-14T03:20:11.093Z,15.77
2023-04-14T03:23:14.130Z,15.80
2023-04-14T03:26:25.209Z,14.87
2023-04-14T03:29:34.622Z,14.97
2023-04-14T03:32:42.109Z,15.25
2023-04-14T03:35:48.226Z,17.83
2023-04-14T03:38:51.395Z,16.83
2023-04-14T03:41:58.795Z,16.70
2023-04-14T03:45:01.827Z,13.77
2023-04-14T03:48:07.999Z,14.70
2023-04-14T03:51:16.265Z,17.38
2023-04-14T03:54:23.341Z,13.13
2023-04-14T03:57:27.659Z,13.60
2023-04-14T04:00:31.247Z,14.17
2023-04-14T04:03:37.055Z,15.30
2023-04-14T04:06:40.986Z,14.23
2023-04-14T04:09:45.965Z,13.23
2023-04-14T04:12:49.948Z,14.77
2023-04-14T04:15:53.087Z,16.57
2023-04-14T04:18:57.266Z,17.05
2023-04-14T04:22:05.036Z,15.50
2023-04-14T04:25:11.942Z,14.77
2023-04-14T04:28:21.252Z,15.03
2023-04-14T04:31:24.599Z,14.87
2023-04-14T04:34:29.657Z,14.60
2023-04-14T04:37:33.476Z,14.80
2023-04-14T04:40:40.533Z,14.57
2023-04-14T04:43:51.067Z,13.00
2023-04-14T04:46:55.428Z,13.43
2023-04-14T04:50:01.274Z,13.30
2023-04-14T04:53:03.942Z,15.15
2023-04-14T04:56:07.025Z,15.52
2023-04-14T04:59:10.169Z,15.77
2023-04-14T05:02:12.782Z,16.40
2023-04-14T05:05:15.685Z,17.25
2023-04-14T05:08:18.209Z,17.27
2023-04-14T05:11:21.263Z,18.25
2023-04-14T05:14:25.772Z,18.37
2023-04-14T05:17:29.888Z,16.03
2023-04-14T05:20:34.906Z,17.15
2023-04-14T05:23:39.040Z,19.45
2023-04-14T05:26:51.939Z,18.83
2023-04-14T05:30:00.928Z,15.17
2023-04-14T05:33:03.713Z,16.27
2023-04-14T05:36:06.987Z,15.90
2023-04-14T05:39:09.579Z,18.15
2023-04-14T05:42:12.299Z,19.52
2023-04-14T05:45:15.002Z,17.47
2023-04-14T05:48:18.165Z,18.03
2023-04-14T05:51:20.832Z,20.73
2023-04-14T05:54:23.601Z,23.92
2023-04-14T05:57:26.206Z,20.83
2023-04-14T06:00:28.980Z,26.53
2023-04-14T06:03:31.921Z,21.00
2023-04-14T06:06:34.949Z,20.98
2023-04-14T06:09:37.526Z,20.35
2023-04-14T06:12:40.133Z,17.10
2023-04-14T06:15:42.771Z,17.37
2023-04-14T06:18:45.433Z,16.03
2023-04-14T06:21:48.041Z,20.08
2023-04-14T06:24:50.533Z,20.33
2023-04-14T06:27:53.190Z,21.17
2023-04-14T06:30:55.812Z,18.20
2023-04-14T06:33:58.428Z,18.03
2023-04-14T06:37:01.777Z,16.40
2023-04-14T06:40:04.797Z,17.63
2023-04-14T06:43:10.932Z,19.23
2023-04-14T06:46:13.922Z,17.70
2023-04-14T06:49:17.611Z,16.40
2023-04-14T06:52:20.230Z,16.80
2023-04-14T06:55:22.865Z,17.20
2023-04-14T06:58:26.606Z,18.35
2023-04-14T07:01:29.245Z,20.03
2023-04-14T07:04:32.008Z,20.60
2023-04-14T07:07:36.263Z,25.20
2023-04-14T07:10:38.850Z,20.70
2023-04-14T07:13:42.056Z,20.92
2023-04-14T07:16:44.741Z,20.00
2023-04-14T07:19:47.363Z,19.70
2023-04-14T07:22:49.995Z,20.38
2023-04-14T07:25:57.384Z,20.52
2023-04-14T07:29:00.016Z,19.75
2023-04-14T07:32:03.286Z,17.73
2023-04-14T07:35:08.643Z,20.47
2023-04-14T07:38:11.283Z,22.52
2023-04-14T07:41:13.998Z,21.55
2023-04-14T07:44:16.554Z,20.90
2023-04-14T07:47:19.128Z,23.23
2023-04-14T07:50:21.923Z,20.47
2023-04-14T07:53:24.607Z,19.75
2023-04-14T07:56:27.276Z,22.08
2023-04-14T07:59:31.454Z,22.40
2023-04-14T08:02:34.182Z,20.73
2023-04-14T08:05:37.095Z,20.73
2023-04-14T08:08:40.273Z,19.08
2023-04-14T08:11:42.916Z,19.65
2023-04-14T08:14:46.630Z,21.17
2023-04-14T08:17:49.226Z,27.77
2023-04-14T08:20:52.058Z,18.97
2023-04-14T08:23:54.635Z,18.30
2023-04-14T08:26:57.692Z,17.10
2023-04-14T08:30:00.309Z,17.40
2023-04-14T08:33:02.904Z,18.10
2023-04-14T08:36:06.144Z,21.50
2023-04-14T08:39:08.731Z,20.55
2023-04-14T08:42:13.389Z,20.35
2023-04-14T08:45:16.191Z,21.83
2023-04-14T08:48:21.083Z,20.30
2023-04-14T08:51:38.716Z,17.63
2023-04-14T08:54:42.218Z,16.98
2023-04-14T08:57:46.665Z,16.23
2023-04-14T09:00:49.787Z,14.95
2023-04-14T09:03:52.999Z,15.73
2023-04-14T09:06:56.819Z,14.70
2023-04-14T09:09:59.704Z,13.85
2023-04-14T09:13:04.192Z,17.33
2023-04-14T09:16:08.053Z,13.32
2023-04-14T09:19:11.015Z,17.60
2023-04-14T09:22:13.974Z,24.73
2023-04-14T09:25:17.713Z,16.05
2023-04-14T09:28:21.561Z,15.25
2023-04-14T09:31:25.034Z,14.57
2023-04-14T09:34:28.096Z,15.07
2023-04-14T09:37:44.830Z,15.43
2023-04-14T09:40:47.524Z,14.13
2023-04-14T09:43:50.535Z,16.38
2023-04-14T09:46:59.227Z,16.48
2023-04-14T09:50:03.962Z,17.27
2023-04-14T09:53:08.235Z,15.13
2023-04-14T09:56:12.070Z,18.25
2023-04-14T09:59:14.612Z,19.58
2023-04-14T10:02:17.292Z,16.50
2023-04-14T10:05:21.017Z,16.13
2023-04-14T10:08:33.557Z,18.37
2023-04-14T10:11:36.637Z,15.38
2023-04-14T10:14:43.549Z,16.00
2023-04-14T10:17:46.697Z,16.33
2023-04-14T10:20:49.422Z,21.43
2023-04-14T10:23:52.291Z,16.67
2023-04-14T10:26:56.043Z,15.35
2023-04-14T10:29:59.560Z,15.00
2023-04-14T10:33:02.592Z,11.85
2023-04-14T10:36:05.498Z,12.83
2023-04-14T10:39:10.259Z,15.83
2023-04-14T10:42:12.956Z,13.02
2023-04-14T10:45:15.546Z,13.25
2023-04-14T10:48:18.098Z,12.88
2023-04-14T10:51:21.469Z,13.17
2023-04-14T10:54:24.127Z,11.97
2023-04-14T10:57:30.282Z,9.80
2023-04-14T11:00:39.348Z,9.77
2023-04-14T11:03:45.228Z,12.57
2023-04-14T11:06:47.904Z,10.30
2023-04-14T11:09:50.791Z,10.03
2023-04-14T11:13:04.598Z,9.38
2023-04-14T11:16:08.015Z,10.10
2023-04-14T11:19:15.414Z,7.60
2023-04-14T11:22:42.708Z,8.90
2023-04-14T11:25:45.730Z,15.20
2023-04-14T11:28:48.332Z,10.15
2023-04-14T11:32:06.657Z,6.13
2023-04-14T11:35:09.699Z,4.97
2023-04-14T11:38:14.722Z,5.93
2023-04-14T11:41:17.351Z,6.93
2023-04-14T11:44:20.239Z,6.95
2023-04-14T11:47:22.879Z,5.78
2023-04-14T11:50:26.438Z,5.85
2023-04-14T11:53:29.479Z,7.70
2023-04-14T11:56:32.233Z,5.53
2023-04-14T11:59:45.448Z,6.22
2023-04-14T12:02:48.329Z,5.95
2023-04-14T12:05:56.352Z,3.20
2023-04-14T12:09:03.813Z,3.63
2023-04-14T12:12:17.166Z,5.33
2023-04-14T12:15:19.979Z,6.95
2023-04-14T12:18:23.146Z,6.85
2023-04-14T12:21:26.329Z,6.50
2023-04-14T12:24:39.945Z,3.70
2023-04-14T12:27:42.648Z,3.77
2023-04-14T12:30:53.088Z,4.20
2023-04-14T12:34:02.035Z,2.97
2023-04-14T12:37:09.912Z,3.55
2023-04-14T12:40:12.700Z,4.67
2023-04-14T12:43:16.837Z,4.27
2023-04-14T12:46:29.415Z,4.13
2023-04-14T12:49:37.110Z,3.08
2023-04-14T12:52:40.810Z,4.40
2023-04-14T12:55:43.449Z,4.80
2023-04-14T12:58:47.091Z,7.23
2023-04-14T13:01:49.752Z,4.60
2023-04-14T13:04:52.376Z,3.55
2023-04-14T13:07:54.948Z,5.30
2023-04-14T13:10:57.690Z,3.43
2023-04-14T13:14:00.282Z,7.10
2023-04-14T13:17:03.149Z,3.72
2023-04-14T13:20:06.283Z,5.63
2023-04-14T13:23:08.835Z,5.70
2023-04-14T13:26:12.262Z,6.27
2023-04-14T13:29:15.116Z,5.00
2023-04-14T13:32:18.486Z,6.55
2023-04-14T13:35:21.270Z,3.63
2023-04-14T13:38:23.876Z,4.30
2023-04-14T13:41:26.656Z,7.00
2023-04-14T13:44:29.314Z,5.20
2023-04-14T13:47:31.889Z,5.95
2023-04-14T13:50:34.569Z,4.75
2023-04-14T13:53:37.335Z,2.97
2023-04-14T13:56:39.916Z,5.10
2023-04-14T13:59:42.479Z,7.50
2023-04-14T14:02:45.194Z,6.75
2023-04-14T14:05:48.039Z,4.43
2023-04-14T14:09:06.323Z,5.93
2023-04-14T14:12:11.656Z,4.07
2023-04-14T14:15:14.380Z,5.00
2023-04-14T14:18:17.765Z,6.05
2023-04-14T14:21:20.452Z,5.18
2023-04-14T14:24:23.067Z,4.00
2023-04-14T14:27:25.867Z,6.57
2023-04-14T14:30:28.624Z,6.17
2023-04-14T14:33:31.200Z,3.88
2023-04-14T14:36:33.803Z,3.22
2023-04-14T14:39:36.387Z,6.30
2023-04-14T14:42:39.055Z,7.73
2023-04-14T14:45:41.705Z,7.90
2023-04-14T14:48:44.388Z,3.25
2023-04-14T14:51:47.124Z,3.00
2023-04-14T14:54:49.646Z,3.58
2023-04-14T14:57:52.304Z,2.90
2023-04-14T15:00:54.841Z,3.33
2023-04-14T15:03:57.819Z,2.55
2023-04-14T15:07:00.546Z,3.08
2023-04-14T15:10:05.564Z,3.58
2023-04-14T15:13:08.303Z,3.30
2023-04-14T15:16:11.062Z,3.53
2023-04-14T15:19:15.518Z,3.78
2023-04-14T15:22:18.142Z,6.65
2023-04-14T15:25:20.782Z,5.63
2023-04-14T15:28:24.028Z,3.00
2023-04-14T15:31:26.715Z,4.17
2023-04-14T15:34:29.329Z,4.03
2023-04-14T15:37:31.936Z,2.80
2023-04-14T15:40:34.608Z,3.78
2023-04-14T15:43:37.203Z,3.60
2023-04-14T15:46:39.757Z,2.80
2023-04-14T15:49:42.519Z,2.83
2023-04-14T15:52:49.833Z,3.45
2023-04-14T15:55:52.387Z,5.13
2023-04-14T15:58:54.946Z,3.33
2023-04-14T16:01:58.135Z,4.40
2023-04-14T16:05:01.108Z,3.42
2023-04-14T16:08:04.362Z,2.67
2023-04-14T16:11:07.970Z,4.30
2023-04-14T16:14:10.598Z,3.33
2023-04-14T16:17:13.352Z,4.07
2023-04-14T16:20:17.924Z,5.57
2023-04-14T16:23:20.757Z,5.57
2023-04-14T16:26:25.802Z,5.35
2023-04-14T16:29:28.852Z,5.87
2023-04-14T16:32:31.760Z,7.63
2023-04-14T16:35:35.008Z,8.27
2023-04-14T16:38:37.553Z,9.88
2023-04-14T16:41:40.144Z,12.20
2023-04-14T16:44:42.798Z,9.57
2023-04-14T16:47:45.539Z,4.50
2023-04-14T16:50:48.760Z,3.85
2023-04-14T16:53:51.953Z,4.00
2023-04-14T16:56:54.545Z,6.07
2023-04-14T16:59:57.074Z,9.23
2023-04-14T17:02:59.924Z,5.40
2023-04-14T17:06:03.203Z,6.68
2023-04-14T17:09:05.955Z,6.20
2023-04-14T17:12:08.748Z,5.18
2023-04-14T17:15:11.911Z,5.43
2023-04-14T17:18:15.065Z,4.63
2023-04-14T17:21:17.795Z,7.38
2023-04-14T17:24:20.847Z,7.63
2023-04-14T17:27:23.616Z,5.78
2023-04-14T17:30:27.328Z,7.33
2023-04-14T17:33:30.107Z,8.23
2023-04-14T17:36:33.987Z,7.57
2023-04-14T17:39:36.659Z,7.00
2023-04-14T17:42:39.586Z,5.47
2023-04-14T17:45:43.997Z,5.17
2023-04-14T17:48:47.006Z,5.73
2023-04-14T17:51:50.830Z,8.75
2023-04-14T17:54:54.671Z,12.23
2023-04-14T17:57:57.876Z,12.27
2023-04-14T18:01:00.762Z,9.20
2023-04-14T18:04:04.602Z,10.33
2023-04-14T18:07:08.057Z,10.80
2023-04-14T18:10:11.074Z,12.82
2023-04-14T18:13:13.817Z,19.60
2023-04-14T18:16:17.293Z,23.07
2023-04-14T18:19:20.336Z,15.93
2023-04-14T18:22:23.061Z,10.50
2023-04-14T18:25:26.220Z,16.38
2023-04-14T18:28:29.683Z,24.80
2023-04-14T18:31:32.608Z,20.63
2023-04-14T18:34:36.132Z,19.27
2023-04-14T18:37:39.925Z,13.45
2023-04-14T18:40:42.802Z,9.45
2023-04-14T18:43:45.530Z,7.00
2023-04-14T18:46:48.481Z,15.70
2023-04-14T18:49:52.315Z,14.33
2023-04-14T18:52:55.322Z,16.92
2023-04-14T18:55:58.237Z,11.85
2023-04-14T18:59:02.441Z,10.00
2023-04-14T19:02:06.592Z,7.17
2023-04-14T19:05:10.149Z,8.80
2023-04-14T19:08:12.979Z,8.80
2023-04-14T19:11:15.754Z,12.73
2023-04-14T19:14:18.533Z,11.93
2023-04-14T19:17:21.460Z,15.17
2023-04-14T19:20:24.315Z,14.57
2023-04-14T19:23:27.080Z,15.13
2023-04-14T19:26:34.484Z,14.85
2023-04-14T19:29:37.770Z,13.25
2023-04-14T19:32:41.599Z,12.30
2023-04-14T19:35:45.411Z,10.87
2023-04-14T19:38:48.222Z,8.07
2023-04-14T19:41:51.425Z,7.47
2023-04-14T19:44:54.246Z,9.88
2023-04-14T19:47:57.624Z,6.07
2023-04-14T19:51:02.099Z,6.60
2023-04-14T19:54:05.652Z,8.05
2023-04-14T19:57:08.635Z,6.85
2023-04-14T20:00:12.422Z,6.55
2023-04-14T20:03:15.502Z,9.80
2023-04-14T20:06:19.621Z,11.70
2023-04-14T20:09:22.249Z,13.00
2023-04-14T20:12:25.062Z,11.60
2023-04-14T20:15:27.930Z,7.47
2023-04-14T20:18:30.842Z,6.70
2023-04-14T20:21:33.779Z,8.40
2023-04-14T20:24:37.485Z,12.30
2023-04-14T20:27:41.107Z,14.40
2023-04-14T20:30:45.159Z,14.85
2023-04-14T20:33:48.550Z,18.53
2023-04-14T20:36:53.315Z,12.10
2023-04-14T20:39:56.787Z,10.52
2023-04-14T20:43:00.151Z,9.80
2023-04-14T20:46:04.199Z,16.27
2023-04-14T20:49:07.587Z,11.50
2023-04-14T20:52:10.485Z,11.33
2023-04-14T20:55:16.436Z,12.35
2023-04-14T20:58:19.413Z,7.78
2023-04-14T21:01:23.955Z,6.72
2023-04-14T21:04:26.692Z,6.40
2023-04-14T21:07:29.281Z,7.43
2023-04-14T21:10:31.971Z,6.57
2023-04-14T21:15:30.355Z,6.93
2023-04-14T21:16:59.202Z,6.95
2023-04-14T21:20:05.951Z,8.47
2023-04-14T21:23:08.579Z,7.73
2023-04-14T21:26:11.999Z,8.52
2023-04-14T21:29:14.590Z,7.30
2023-04-14T21:32:19.868Z,8.40
2023-04-14T21:35:22.479Z,7.97
2023-04-14T21:38:25.181Z,6.13
2023-04-14T21:41:27.816Z,6.75
2023-04-14T21:44:30.340Z,7.07
2023-04-14T21:47:32.947Z,5.95
2023-04-14T21:50:35.635Z,5.77
2023-04-14T21:53:38.189Z,5.70
2023-04-14T21:56:41.959Z,6.05
2023-04-14T21:59:44.626Z,7.32
2023-04-14T22:02:47.791Z,7.57
2023-04-14T22:05:53.394Z,6.87
2023-04-14T22:08:56.386Z,7.30
2023-04-14T22:11:58.960Z,6.70
2023-04-14T22:15:03.770Z,6.35
2023-04-14T22:18:06.766Z,6.70
2023-04-14T22:21:10.631Z,9.30
2023-04-14T22:24:13.713Z,8.13
2023-04-14T22:27:16.274Z,7.45
2023-04-14T22:30:18.955Z,7.20
2023-04-14T22:33:21.600Z,5.60
2023-04-14T22:36:24.344Z,5.80
2023-04-14T22:39:27.042Z,5.07
2023-04-14T22:42:29.661Z,5.45
2023-04-14T22:45:32.240Z,4.60
2023-04-14T22:48:34.777Z,4.68
2023-04-14T22:51:37.318Z,5.37
2023-04-14T22:54:39.895Z,6.90
2023-04-14T22:57:42.519Z,5.18
2023-04-14T23:00:46.140Z,6.80
2023-04-14T23:03:50.970Z,5.28
2023-04-14T23:06:53.887Z,5.70
2023-04-14T23:09:56.431Z,5.20
2023-04-14T23:12:59.102Z,5.40
2023-04-14T23:16:02.144Z,6.03
2023-04-14T23:19:04.915Z,7.15
2023-04-14T23:22:08.296Z,6.40
2023-04-14T23:25:10.887Z,5.23
2023-04-14T23:28:13.467Z,5.35
2023-04-14T23:31:17.480Z,9.13
2023-04-14T23:34:20.148Z,5.63
2023-04-14T23:37:22.761Z,5.80
2023-04-14T23:40:25.351Z,6.27
2023-04-14T23:43:29.248Z,7.13
2023-04-14T23:46:32.801Z,7.10
2023-04-14T23:49:36.077Z,7.47
2023-04-14T23:52:39.136Z,8.13
2023-04-14T23:55:43.041Z,7.93
2023-04-14T23:58:45.712Z,8.77
